Tiempo atmosférico en la estación meteorológica de A Coruña, A Coruña (58 m.)



Fecha
DESCASC
Temp. máxima en grados centígrados (hora)
DESCASC
Temp. mínima en grados centígrados (hora)
DESCASC
Temp. media en grados centígrados
DESCASC
Racha de viento máxima en m/sg (hora)
DESCASC
Velocidad máxima media en intervalos de 10 minutos(hora)
DESCASC
Precipitaciones diarias en mm
DESCASC
Precipitaciones de 00:00 a 06:00 en mm
DESCASC
Precipitaciones de 06:00 a 12:00 en mm
DESCASC
Precipitaciones de 12:00 a 18:00 en mm
DESCASC
Precipitaciones de 18:00 a 24:00 en mm
DESCASC
05-12-2019 12.8 (12:30) 9.4 (00:20) 11.1 11.94 (11:30) 7.22 (11:30) 0 0 0 0 0
04-12-2019 11.2 (14:30) 4.5 (05:20) 7.8 8.89 (19:30) 5.56 (21:10) 0 0 0 0 0
03-12-2019 13.5 (14:40) 6.3 (00:00) 9.9 9.44 (01:50) 6.39 (01:20) 0 0 0 0 0
02-12-2019 11.9 (14:10) 9.6 (00:00) 10.8 16.94 (02:30) 10.28 (02:30) 0 0 0 0 0
01-12-2019 13.6 (14:00) 10.1 (00:00) 11.9 19.17 (22:00) 10.83 (22:00) 2.4 0.4 1.6 0 0.4
30-11-2019 17 (01:40) 11.3 (00:00) 14.2 15.28 (15:50) 8.06 (13:30) 4.8 3.4 0 1.2 0.2
29-11-2019 16.5 (12:10) 11.9 (00:00) 14.2 10.56 (22:50) 5.56 (22:50) 1.4 0 0 0 1.4
28-11-2019 15.3 (18:00) 12.2 (00:00) 13.8 10.56 (19:20) 6.11 (19:30) 17.8 0 0 17.8 0
27-11-2019 14.8 (15:30) 12.3 (00:00) 13.6 17.5 (02:50) 9.44 (02:50) 3.2 2.4 0.2 0.6 0
26-11-2019 17.7 (12:40) 12.8 (00:00) 15.3 21.39 (16:50) 10.83 (16:40) 7.6 0 0.2 5.2 2.2
25-11-2019 16.2 (23:59) 12.9 (00:00) 14.6 20 (22:50) 8.33 (22:50) 0.6 0.6 0 0 0
24-11-2019 16.3 (20:00) 10.9 (00:00) 13.6 16.11 (15:50) 8.06 (15:50) 2.8 0 0 1.6 1.2
23-11-2019 14.7 (14:00) 10.8 (00:00) 12.8 19.72 (00:20) 11.67 (00:10) 2 1.2 0.6 0.2 0
22-11-2019 15.2 (09:50) 10.7 (00:00) 12.9 24.72 (17:40) 15.83 (22:20) 18.2 1.6 6.8 2 7.8
21-11-2019 15.1 (14:40) 9 (00:00) 12.1 15.56 (05:40) 6.39 (05:40) 6.6 0 6 0.4 0.2
20-11-2019 12 (15:50) 9.1 (00:00) 10.6 12.22 (13:00) 5.56 (13:20) 2.2 0 0.4 0 1.8
19-11-2019 11.8 (14:50) 8.1 (00:00) 10 10.28 (13:40) 5.83 (12:10) 2.6 0 1.6 1 0
18-11-2019 14.1 (14:00) 8.7 (00:00) 11.4 13.06 (02:10) 7.78 (02:10) 3.6 1.6 2 0 0
17-11-2019 13.7 (13:40) 10.8 (00:00) 12.3 15 (14:40) 8.89 (19:20) 7.4 3.6 2.6 1 0.2
16-11-2019 12.6 (12:30) 8.7 (00:00) 10.7 13.61 (01:10) 7.78 (01:10) 3 2.6 0 0.4 0
15-11-2019 11.5 (13:00) 8.1 (00:00) 9.8 19.72 (07:00) 11.39 (01:30) 12.4 0.4 0.6 6.6 4.8
14-11-2019 12.7 (13:40) 8 (00:00) 10.3 24.17 (15:20) 13.61 (09:30) 9.8 1.8 3.6 2.2 2.2
13-11-2019 14.5 (14:40) 9.5 (00:00) 12 20.83 (22:10) 10.28 (20:50) 6.2 0.2 0.2 0.2 5.6
12-11-2019 15.5 (18:40) 10.5 (00:00) 13 17.5 (17:10) 10 (17:50) 28.6 0.4 2.4 14.6 11.2
11-11-2019 15 (05:00) 10.3 (00:00) 12.7 12.5 (07:50) 7.22 (08:10) 3.4 2.8 0.6 0 0
10-11-2019 12.9 (02:00) 9.6 (00:00) 11.3 16.39 (05:20) 8.61 (09:50) 12.4 1.4 2.6 6.4 2
09-11-2019 15.3 (14:10) 11.1 (00:00) 13.2 15.56 (19:50) 8.61 (15:30) 1.8 0.8 0.4 0 0.6
08-11-2019 14.5 (14:20) 9.3 (00:00) 11.9 17.22 (03:30) 9.44 (00:40) 7.6 5 2.6 0 0

Gráficas

Temp. máximas Temp. mínimas Temp. medias Precipitaciones Rachas de viento máximas Velocidades máximas media en intervalos de 10 minutos

Datos horarios

Fecha y hora oficial Temperatura (ºC) Velocidad del viento (km/h) Dirección del viento Racha (km/h) Dirección de racha Precipitación (mm) Presión (hPa) Tendencia (hPa) Humedad (%)
2019-12-07 23:00:00 14.5 8 Sur 18 Sur 0 1015.5 0.4 86
2019-12-07 22:00:00 14.3 8 Sudeste 18 Sur 0 1014.9 -0.3 88
2019-12-07 21:00:00 14.2 4 Sur 14 Sur 0.2 1015.1 0.1 90
2019-12-07 20:00:00 14.4 8 Sudeste 14 Sur 0 1015.1 0.2 86
2019-12-07 19:00:00 14.3 5 Sudeste 13 Sudeste 0 1015.2 0.8 87
2019-12-07 18:00:00 14.9 8 Sudeste 22 Sudoeste 0 1015 0.4 83
2019-12-07 17:00:00 15.6 8 Sur 24 Sudoeste 0 1014.9 -0.1 81
2019-12-07 16:00:00 15.1 10 Sudeste 19 Sudeste 0 1014.4 -1.2 83
2019-12-07 15:00:00 15.4 17 Sur 25 Sur 0 1014.6 -1.8 79
2019-12-07 14:00:00 16 14 Sur 21 Sur 0 1015 -1.5 78
2019-12-07 13:00:00 14.7 9 Sudeste 14 Sudeste 0 1015.6 -0.5 87
2019-12-07 12:00:00 12.6 9 Sur 15 Sur 0 1016.4 0.9 93
2019-12-07 11:00:00 12 9 Sudeste 13 Sudeste 0.2 1016.5 1 95
2019-12-07 10:00:00 12 9 Sur 16 Sur 0 1016.1 1 95
2019-12-07 09:00:00 11.5 10 Sudeste 17 Sur 0.2 1015.5 0.5 97
2019-12-07 08:00:00 11.8 9 Sur 15 Sur 0.4 1015.5 0.3 95
2019-12-07 07:00:00 11.7 10 Sur 17 Sur 0 1015.1 -0.6 95
2019-12-07 06:00:00 11.3 12 Sur 17 Sur 0 1015 -0.6 96
2019-12-07 05:00:00 10.9 13 Sudeste 17 Sudeste 0.2 1015.2 -0.6 97
2019-12-07 04:00:00 11.1 9 Sudeste 14 Sudeste 0.4 1015.7 -0.4 96
2019-12-07 03:00:00 11.1 6 Sudeste 14 Sur 0.2 1015.6 -0.5 95
2019-12-07 02:00:00 11.5 8 Sur 12 Sur 0 1015.8 -0.6 93
2019-12-07 01:00:00 11.8 3 Sudeste 10 Sur 0 1016.1 0.1 86
2019-12-07 00:00:00 12.1 5 Sur 11 Sur 0 1016.1 -0.1 84
2019-12-06 23:00:00 12 7 Sur 12 Sur 0 1016.4 0.4 83
2019-12-06 22:00:00 11.8 11 Sur 14 Sur 0 1016 0.5 83
2019-12-06 21:00:00 12 8 Sur 11 Sur 0 1016.2 1.3 84
2019-12-06 20:00:00 11.6 8 Sudoeste 13 Sudoeste 0 1016 0.6 82
2019-12-06 19:00:00 11.9 6 Sudoeste 9 Sudoeste 0 1015.5 0.6 88
2019-12-06 18:00:00 12.5 4 Sudoeste 10 Oeste 0 1014.9 -0.5 88
2019-12-06 17:00:00 12.7 4 Oeste 10 Oeste 0 1015.4 -0.4 88
2019-12-06 16:00:00 13 4 Sudoeste 14 Sudoeste 0 1014.9 -1.8 86
2019-12-06 15:00:00 13.3 9 Oeste 17 Oeste 0 1015.4 -1.3 86
2019-12-06 14:00:00 13.2 6 Oeste 11 Oeste 0 1015.8 -0.6 87
2019-12-06 13:00:00 12.8 4 Norte 13 Noroeste 0 1016.7 0 87
2019-12-06 12:00:00 11.1 4 Sur 8 Sudeste 0 1016.7 0.5 86
2019-12-06 11:00:00 10.3 4 Sudeste 11 Sudeste 0 1016.4 1 89
2019-12-06 10:00:00 9.6 3 Sudeste 7 Sudeste 0 1016.7 1.8 91
2019-12-06 09:00:00 9.2 2 Sudeste 4 Sudeste 0 1016.2 1.2 90
2019-12-06 08:00:00 9.2 2 Sudeste 12 Sudeste 0 1015.4 0 90
2019-12-06 07:00:00 9.3 6 Sudeste 19 Sudeste 0 1014.9 -0.4 87
2019-12-06 06:00:00 9.7 6 Sudeste 10 Sudeste 0 1015 -0.5 89
2019-12-06 05:00:00 10.2 2 Norte 10 Sudeste 0 1015.4 -0.5 89
2019-12-06 04:00:00 10.7 4 Sudeste 11 Sudeste 0 1015.3 -0.8 88
2019-12-06 03:00:00 11.2 6 Sudeste 9 Sur 0 1015.5 -0.4 87
2019-12-06 02:00:00 11.6 0 Calma 11 Este 0 1015.9 -0.2 86
2019-12-06 01:00:00 11.9 6 Nordeste 11 Nordeste 0 1016.1 -0.1 86
2019-12-06 00:00:00 12.3 5 Este 14 Nordeste 0 1015.9 0.1 83
2019-12-05 23:00:00 12.4 8 Nordeste 18 Nordeste 0 1016.1 0.5 82
2019-12-05 22:00:00 12.2 10 Nordeste 21 Nordeste 0 1016.2 1 82
2019-12-05 21:00:00 12 11 Nordeste 21 Nordeste 0 1015.8 0.5 84
2019-12-05 20:00:00 12.4 14 Nordeste 23 Nordeste 0 1015.6 0.7 83
2019-12-05 19:00:00 12.2 14 Nordeste 27 Nordeste 0 1015.2 0.2 85
2019-12-05 18:00:00 12.4 14 Nordeste 30 Nordeste 0 1015.3 -0.2 87
2019-12-05 17:00:00 12.5 18 Nordeste 28 Nordeste 0 1014.9 -1 83
2019-12-05 16:00:00 12.6 15 Nordeste 32 Nordeste 0 1015 -1.3 83
2019-12-05 15:00:00 12.6 18 Nordeste 34 Nordeste 0 1015.5 -1.3 84
2019-12-05 14:00:00 12.7 18 Nordeste 30 Nordeste 0 1015.9 -0.4 86
2019-12-05 13:00:00 12.6 14 Nordeste 32 Nordeste 0 1016.3 0.9 84
2019-12-05 12:00:00 12.1 16 Nordeste 43 Nordeste 0 1016.8 2.1 86
2019-12-05 11:00:00 12.2 24 Nordeste 42 Norte 0 1016.3 1.9 81
2019-12-05 10:00:00 12.2 16 Norte 28 Nordeste 0 1015.4 1.4 79
2019-12-05 09:00:00 11.9 16 Nordeste 27 Nordeste 0 1014.7 1.1 76
2019-12-05 08:00:00 11.9 19 Nordeste 31 Nordeste 0 1014.4 1 78
2019-12-05 07:00:00 11.7 17 Nordeste 28 Nordeste 0 1014 0.6 82
2019-12-05 06:00:00 11.3 18 Nordeste 26 Nordeste 0 1013.6 0.6 83
2019-12-05 05:00:00 10.6 10 Nordeste 18 Nordeste 0 1013.4 0.5 82
2019-12-05 04:00:00 10.8 9 Este 15 Norte 0 1013.4 0.3 81
2019-12-05 03:00:00 10.8 8 Nordeste 14 Este 0 1013 0.5 81
2019-12-05 02:00:00 10 9 Este 14 Nordeste 0 1012.9 0.6 81
2019-12-05 01:00:00 9.6 7 Este 12 Este 0 1013.1 1.1 83
2019-12-05 00:00:00 9.6 6 Este 12 Sudeste 0 1012.5 1.1 80
2019-12-04 23:00:00 9.6 6 Este 12 Este 0 1012.3 1.9 78
2019-12-04 22:00:00 10.4 10 Este 30 Nordeste 0 1012 2.4 74
2019-12-04 21:00:00 10.3 17 Nordeste 32 Nordeste 0 1011.4 2.6 71
2019-12-04 20:00:00 10.2 19 Nordeste 32 Norte 0 1010.4 2 59
2019-12-04 19:00:00 10.2 15 Nordeste 25 Norte 0 1009.6 1.5 67
2019-12-04 18:00:00 10.6 14 Nordeste 24 Nordeste 0 1008.8 0.9 65
2019-12-04 17:00:00 10.8 13 Nordeste 24 Norte 0 1008.4 0.3 69
2019-12-04 16:00:00 10.5 14 Norte 24 Norte 0 1008.1 0 74
2019-12-04 15:00:00 11 15 Norte 21 Norte 0 1007.9 -0.4 69
2019-12-04 14:00:00 10.8 9 Norte 14 Norte 0 1008.1 0.2 63
2019-12-04 13:00:00 10.8 6 Este 12 Este 0 1008.1 0.5 53
2019-12-04 12:00:00 9.4 3 Este 12 Sudeste 0 1008.3 1.4 58
2019-12-04 11:00:00 6.6 7 Sudeste 13 Sur 0 1007.9 1.5 68
2019-12-04 10:00:00 5.7 11 Sudeste 21 Sudeste 0 1007.6 1.8 71
2019-12-04 09:00:00 5.4 11 Sudeste 18 Sudeste 0 1006.9 1.1 72
2019-12-04 08:00:00 5.7 10 Sur 15 Sur 0 1006.4 0.7 71
2019-12-04 07:00:00 5.9 9 Sur 14 Sur 0 1005.8 -0.1 71
2019-12-04 06:00:00 5.3 8 Sur 17 Sudoeste 0 1005.8 -0.2 74
2019-12-04 05:00:00 4.7 5 Sur 12 Sudeste 0 1005.7 -0.9 79
2019-12-04 04:00:00 4.8 5 Sudeste 13 Sudeste 0 1005.9 -1.2 80
2019-12-04 03:00:00 5 8 Sudeste 14 Sudeste 0 1006 -1.3 81
2019-12-04 02:00:00 5.6 10 Sudeste 17 Sudeste 0 1006.6 -1.1 79
2019-12-04 01:00:00 5.8 9 Sudeste 16 Sudeste 0 1007.1 -0.5 79
2019-12-04 00:00:00 6.3 6 Sudeste 15 Sudeste 0 1007.3 -0.4 78
2019-12-03 23:00:00 7 8 Sudeste 12 Sudeste 0 1007.7 0.1 76
2019-12-03 22:00:00 7.6 5 Sudeste 10 Este 0 1007.6 0 73
2019-12-03 21:00:00 8.2 5 Este 12 Este 0 1007.7 -0.1 70
2019-12-03 20:00:00 9 8 Este 14 Este 0 1007.6 -0.5 72
2019-12-03 19:00:00 10 9 Este 17 Este 0 1007.6 -0.6 65
2019-12-03 18:00:00 11.2 6 Este 17 Este 0 1007.8 -1.1 56
2019-12-03 17:00:00 12.1 7 Este 18 Este 0 1008.1 -1.5 51
2019-12-03 16:00:00 12.4 10 Este 17 Este 0 1008.2 -2.6 52
2019-12-03 15:00:00 13.4 7 Nordeste 16 Este 0 1008.9 -3.2 51
2019-12-03 14:00:00 12.8 8 Este 17 Este 0 1009.6 -2.8 51
2019-12-03 13:00:00 12.5 6 Sudeste 15 Este 0 1010.8 -1.9 50
2019-12-03 12:00:00 11.3 7 Sur 14 Este 0 1012.1 -0.7 52
2019-12-03 11:00:00 9.6 9 Nordeste 13 Este 0 1012.4 -0.8 61
2019-12-03 10:00:00 9.5 10 Este 27 Este 0 1012.7 -0.4 63
2019-12-03 09:00:00 8.8 14 Este 24 Este 0 1012.8 -0.5 64
2019-12-03 08:00:00 8.7 14 Este 23 Este 0 1013.2 -0.2 65
2019-12-03 07:00:00 8.8 15 Este 30 Nordeste 0 1013.1 -1.2 67
2019-12-03 06:00:00 9.1 15 Este 26 Este 0 1013.3 -1.8 65
2019-12-03 05:00:00 9.1 15 Este 30 Nordeste 0 1013.4 -2 67
2019-12-03 04:00:00 9.4 18 Este 32 Este 0 1014.3 -1.5 68
2019-12-03 03:00:00 9.4 15 Este 28 Este 0 1015.1 -1.2 70
2019-12-03 02:00:00 9.7 19 Este 34 Este 0 1015.4 -1.2 68
2019-12-03 01:00:00 9.7 18 Este 33 Este 0 1015.8 -1 67
2019-12-03 00:00:00 9.7 17 Este 34 Nordeste 0 1016.3 -0.3 67
2019-12-02 23:00:00 9.6 17 Este 28 Este 0 1016.6 0.3 69
2019-12-02 22:00:00 9.7 18 Nordeste 30 Este 0 1016.8 0.5 69
2019-12-02 21:00:00 9.8 20 Este 37 Nordeste 0 1016.6 0.6 70
2019-12-02 20:00:00 9.8 17 Este 33 Este 0 1016.3 0.5 71
2019-12-02 19:00:00 10.1 20 Este 42 Este 0 1016.3 0.7 70
2019-12-02 18:00:00 10.5 26 Nordeste 46 Nordeste 0 1016 0.2 69
2019-12-02 17:00:00 11 22 Nordeste 49 Este 0 1015.8 -0.8 67
2019-12-02 16:00:00 11.5 28 Nordeste 57 Nordeste 0 1015.6 -1.7 63
2019-12-02 15:00:00 11.7 29 Nordeste 52 Nordeste 0 1015.8 -2 61
2019-12-02 14:00:00 11.6 23 Nordeste 40 Nordeste 0 1016.6 -0.9 66
2019-12-02 13:00:00 11.4 20 Nordeste 45 Nordeste 0 1017.3 0.6 66
2019-12-02 12:00:00 11.1 30 Nordeste 48 Nordeste 0 1017.8 1.6 68
2019-12-02 11:00:00 11.4 28 Nordeste 45 Nordeste 0 1017.5 1.8 69
2019-12-02 10:00:00 11.2 25 Nordeste 46 Nordeste 0 1016.7 1.9 74
2019-12-02 09:00:00 10.8 26 Nordeste 51 Nordeste 0 1016.2 1.9 75
2019-12-02 08:00:00 11 29 Nordeste 49 Nordeste 0 1015.7 1.5 75
2019-12-02 07:00:00 11.1 27 Nordeste 42 Nordeste 0 1014.8 0.6 77
2019-12-02 06:00:00 11.1 23 Nordeste 43 Nordeste 0 1014.3 0.1 80
2019-12-02 05:00:00 10.9 23 Nordeste 42 Nordeste 0 1014.2 0 81
2019-12-02 04:00:00 10.7 27 Nordeste 51 Nordeste 0 1014.2 0.1 83
2019-12-02 03:00:00 10.8 35 Nordeste 61 Nordeste 0 1014.2 0.4 77
2019-12-02 02:00:00 11 35 Nordeste 53 Nordeste 0 1014.2 0.3 72
2019-12-02 01:00:00 11.2 32 Nordeste 54 Norte 0 1014.1 0.2 61
2019-12-02 00:00:00 11 26 Nordeste 45 Nordeste 0 1013.8 0.5 75
2019-12-01 23:00:00 11.2 24 Nordeste 45 Nordeste 0 1013.9 1 78
2019-12-01 22:00:00 11.1 39 Nordeste 69 Norte 0.4 1013.9 1.7 82
2019-12-01 21:00:00 12 27 Nordeste 53 Nordeste 0 1013.3 2.1 74
2019-12-01 20:00:00 12.1 31 Nordeste 53 Nordeste 0 1012.9 2.9 66
2019-12-01 19:00:00 11.9 27 Nordeste 48 Nordeste 0 1012.2 2.8 71
2019-12-01 18:00:00 11.7 27 Nordeste 58 Nordeste 0 1011.2 2.6 69
2019-12-01 17:00:00 12.1 30 Nordeste 54 Nordeste 0 1010 1.7 75
2019-12-01 16:00:00 12.1 33 Nordeste 55 Nordeste 0 1009.4 1.4 75
2019-12-01 15:00:00 13.2 23 Nordeste 44 Este 0 1008.6 0.4 77
2019-12-01 14:00:00 13.6 23 Nordeste 42 Nordeste 0 1008.3 0.7 80
2019-12-01 13:00:00 13.4 19 Nordeste 37 Nordeste 0 1008 1.5 80
2019-12-01 12:00:00 12.8 22 Nordeste 40 Nordeste 0.6 1008.2 3.3 82
2019-12-01 11:00:00 11.8 9 Nordeste 33 Nordeste 0 1007.6 4.4 91
2019-12-01 10:00:00 11 23 Nordeste 33 Nordeste 0.2 1006.5 4.4 92
2019-12-01 09:00:00 10.7 14 Nordeste 22 Nordeste 0 1004.9 4.8 87
2019-12-01 08:00:00 10.2 7 Nordeste 15 Nordeste 0.2 1003.2 4 95
2019-12-01 07:00:00 10.5 15 Nordeste 28 Nordeste 0.6 1002.1 3.7 93
2019-12-01 06:00:00 10.6 7 Este 18 Este 0 1000.1 2.3 86
2019-12-01 05:00:00 10.7 8 Sudeste 22 Sudeste 0 999.2 1.3 85
2019-12-01 04:00:00 10.8 15 Sudeste 27 Sudeste 0 998.4 -0.3 86
2019-12-01 03:00:00 10.9 17 Sudeste 26 Sur 0 997.8 -1.5 88
2019-12-01 02:00:00 10.9 12 Sudeste 31 Sur 0.2 997.9 -2.7 88
2019-12-01 01:00:00 11.3 12 Sur 35 Sur 0.2 998.7 -3.1 86
2019-12-01 00:00:00 11.6 19 Sur 31 Sur 0.2 999.3 -3.4 80
2019-11-30 23:00:00 11.6 14 Sur 32 Sur 0 1000.6 -2.8 79
2019-11-30 22:00:00 12.3 12 Sur 33 Sudoeste 0 1001.8 -2.3 76
2019-11-30 21:00:00 12.9 12 Sudoeste 28 Sudoeste 0 1002.7 -1.7 71
2019-11-30 20:00:00 12.9 20 Sudoeste 42 Sudoeste 0 1003.4 -1.1 70
2019-11-30 19:00:00 13 19 Sudoeste 36 Sudoeste 0 1004.1 -0.7 76
2019-11-30 18:00:00 13.5 13 Sudoeste 45 Sudoeste 0 1004.4 -0.6 75
2019-11-30 17:00:00 14.3 20 Sudoeste 51 Sur 0 1004.5 -1.5 71
2019-11-30 16:00:00 14.6 23 Sudoeste 55 Sudoeste 0 1004.8 -1.2 67
2019-11-30 15:00:00 15 24 Sudoeste 49 Oeste 0 1005 -2 67
2019-11-30 14:00:00 13.8 22 Sudoeste 48 Sudoeste 1.2 1006 -1 78
2019-11-30 13:00:00 15.1 27 Sudoeste 53 Sudoeste 0 1006 -0.9 66
2019-11-30 12:00:00 14.8 27 Sudoeste 50 Sudoeste 0 1007 0.5 67
2019-11-30 11:00:00 14 18 Sudoeste 36 Sudoeste 0 1007 0.7 74
2019-11-30 10:00:00 13.3 25 Sudoeste 46 Sudoeste 0 1006.9 0.8 77
2019-11-30 09:00:00 12.8 19 Sudoeste 38 Sudoeste 0 1006.5 0.6 78
2019-11-30 08:00:00 13.2 18 Sudoeste 34 Sudoeste 0 1006.3 0.6 73
2019-11-30 07:00:00 14 18 Sudoeste 43 Oeste 0 1006.1 0.6 83
2019-11-30 06:00:00 14.2 19 Sudoeste 42 Oeste 0 1005.9 1 87
2019-11-30 05:00:00 14.4 18 Oeste 54 Oeste 2 1005.7 0.6 89
2019-11-30 04:00:00 15.8 25 Oeste 47 Oeste 0 1005.5 0.2 88
2019-11-30 03:00:00 16.3 22 Sudoeste 48 Sudoeste 1.4 1004.9 -0.6 90
2019-11-30 02:00:00 16.9 19 Sudoeste 40 Sudoeste 0 1005.1 -1 87
2019-11-30 01:00:00 16.4 11 Sudoeste 26 Sur 0 1005.3 -1.8 89
2019-11-30 00:00:00 15.8 13 Sur 34 Sur 1.4 1005.5 -2.7 90
2019-11-29 23:00:00 16 16 Sur 38 Sur 0 1006.1 -2.4 84
2019-11-29 22:00:00 15.5 6 Sudeste 23 Sur 0 1007.1 -2.5 84
2019-11-29 21:00:00 14.8 5 Sudeste 12 Sudeste 0 1008.2 -1.8 84
2019-11-29 20:00:00 15.2 5 Este 11 Sudeste 0 1008.5 -1.5 80
2019-11-29 19:00:00 15.6 6 Sudeste 12 Sur 0 1009.6 -0.2 74
2019-11-29 18:00:00 15.8 5 Sur 16 Sur 0 1010 -0.4 74
2019-11-29 17:00:00 16.2 5 Sur 14 Sur 0 1010 -0.8 74
2019-11-29 16:00:00 16.2 6 Sur 13 Sur 0 1009.8 -1.8 74
2019-11-29 15:00:00 16.1 9 Sur 22 Sur 0 1010.4 -1.7 72
2019-11-29 14:00:00 15.6 9 Sur 25 Sur 0 1010.8 -1 74
2019-11-29 13:00:00 16.2 10 Sudeste 22 Sudeste 0 1011.6 0.2 71
2019-11-29 12:00:00 16.4 12 Sur 23 Sur 0 1012.1 1.3 66
2019-11-29 11:00:00 14.6 10 Sur 19 Sur 0 1011.8 1.3 73
2019-11-29 10:00:00 13.3 6 Sur 15 Sur 0 1011.4 1.3 82
2019-11-29 09:00:00 12.6 5 Sudoeste 11 Sur 0 1010.8 1 86
2019-11-29 08:00:00 12.5 8 Sudoeste 14 Sudoeste 0 1010.5 0.8 86
2019-11-29 07:00:00 12 11 Sur 14 Sur 0 1010.1 0.8 90
2019-11-29 06:00:00 12.5 6 Sur 10 Sur 0 1009.8 0.9 89
2019-11-29 05:00:00 13 8 Sudoeste 18 Sudoeste 0 1009.7 1.3 87
2019-11-29 04:00:00 13.4 9 Sudoeste 15 Sudoeste 0 1009.3 1 85
2019-11-29 03:00:00 13.4 4 Sudoeste 10 Sur 0 1008.9 1.2 85
2019-11-29 02:00:00 13.3 5 Sur 15 Sudoeste 0 1008.4 1.3 91
2019-11-29 01:00:00 13.3 9 Sudoeste 15 Sudoeste 0 1008.3 1.8 92
2019-11-29 00:00:00 13.1 9 Sudoeste 19 Sudoeste 0 1007.7 2.3 93
2019-11-28 23:00:00 13.3 11 Oeste 25 Oeste 0 1007.1 2.8 93
2019-11-28 22:00:00 13.4 13 Sudoeste 20 Oeste 0 1006.5 3.9 94
2019-11-28 21:00:00 13.7 8 Oeste 19 Oeste 0 1005.4 4.3 94
2019-11-28 20:00:00 14.3 11 Oeste 38 Oeste 0 1004.3 4.3 96
2019-11-28 19:00:00 14.9 21 Oeste 34 Oeste 0 1002.6 2.7 93
2019-11-28 18:00:00 15.3 17 Oeste 31 Oeste 0 1001.1 0.3 93
2019-11-28 17:00:00 13.9 5 Sur 19 Sudeste 0.4 1000 -2 98
2019-11-28 16:00:00 13.2 10 Sudeste 17 Sudeste 9.4 999.9 -3.6 98
2019-11-28 15:00:00 13.1 9 Sudeste 18 Sudeste 3.4 1000.8 -3.4 97
2019-11-28 14:00:00 12.9 7 Sudeste 14 Sudeste 3.4 1002 -1.9 95
2019-11-28 13:00:00 13.1 3 Sur 9 Sudeste 1.2 1003.5 -0.6 90
2019-11-28 12:00:00 12.6 3 Este 12 Sudeste 0 1004.2 0.3 87
2019-11-28 11:00:00 12.6 5 Sudeste 15 Sur 0 1003.9 0 84
2019-11-28 10:00:00 12.8 10 Sur 20 Sur 0 1004.1 0.5 83
2019-11-28 09:00:00 12.5 10 Sudoeste 19 Oeste 0 1003.9 0.7 86
2019-11-28 08:00:00 12.2 11 Sudoeste 22 Sudoeste 0 1003.9 1 88
2019-11-28 07:00:00 12.2 8 Sudoeste 19 Sudoeste 0 1003.6 0.5 87
2019-11-28 06:00:00 12.5 12 Sudoeste 26 Sudoeste 0 1003.2 0.3 86
2019-11-28 05:00:00 12.5 8 Sudoeste 28 Oeste 0 1002.9 -0.2 86
2019-11-28 04:00:00 13.1 12 Sudoeste 29 Oeste 0 1003.1 -0.2 85
2019-11-28 03:00:00 13 15 Sudoeste 28 Sudoeste 0 1002.9 -0.2 85
2019-11-28 02:00:00 13.3 11 Sudoeste 28 Sudoeste 0 1003.1 0.7 85
2019-11-28 01:00:00 13.4 15 Sudoeste 32 Sudoeste 0 1003.3 1.3 85
2019-11-28 00:00:00 13.3 18 Sudoeste 36 Sudoeste 0 1003.1 1.4 85
2019-11-27 23:00:00 13.2 15 Sudoeste 38 Sudoeste 0 1002.4 1.1 87
2019-11-27 22:00:00 13.8 19 Sudoeste 42 Sudoeste 0 1002 0.6 83
2019-11-27 21:00:00 13.7 18 Sudoeste 38 Sudoeste 0 1001.7 0.6 82
2019-11-27 20:00:00 13.6 19 Sudoeste 38 Sudoeste 0 1001.3 0.8 81
2019-11-27 19:00:00 13.5 18 Sudoeste 38 Sudoeste 0 1001.4 1.3 83
2019-11-27 18:00:00 13.6 18 Sudoeste 40 Sudoeste 0 1001.1 0.9 83
2019-11-27 17:00:00 13.1 19 Sudoeste 44 Sudoeste 0.2 1000.5 0 88
2019-11-27 16:00:00 14.5 20 Sudoeste 42 Sudoeste 0 1000.1 -0.8 78
2019-11-27 15:00:00 13.9 21 Sudoeste 46 Sudoeste 0.2 1000.2 -1.1 83
2019-11-27 14:00:00 14 18 Sudoeste 40 Sudoeste 0.2 1000.5 -0.6 84
2019-11-27 06:00:00 12.6 18 Sudoeste 40 Sudoeste 0 999.1 0.7 85
2019-11-27 05:00:00 13.1 18 Sudoeste 42 Sudoeste 0 999.2 1.4 83
2019-11-27 04:00:00 12.9 21 Sudoeste 42 Sudoeste 1 998.9 1.4 83
2019-11-27 03:00:00 12.3 26 Oeste 63 Oeste 0.8 998.4 1.8 90
2019-11-27 02:00:00 13.3 22 Sudoeste 42 Sudoeste 0 997.8 1.8 83
2019-11-27 01:00:00 12.6 24 Sudoeste 53 Sudoeste 0.6 997.5 2.6 88
2019-11-27 00:00:00 12.9 18 Sudoeste 49 Sudoeste 1.6 996.6 1.8 91
2019-11-26 23:00:00 13.2 31 Sudoeste 59 Sudoeste 0.6 996 1.5 84
2019-11-26 22:00:00 13.8 27 Sudoeste 55 Sudoeste 0 994.9 1.4 74
2019-11-26 21:00:00 13.5 29 Sudoeste 53 Sudoeste 0 994.8 2.5 72
2019-11-26 20:00:00 13.4 29 Sudoeste 60 Sudoeste 0 994.5 2.8 76
2019-11-26 19:00:00 13.5 28 Sudoeste 67 Sudoeste 0 993.5 2.4 76
2019-11-26 18:00:00 13.8 33 Sudoeste 73 Sudoeste 0.2 992.3 0.8 77
2019-11-26 17:00:00 13.9 37 Sudoeste 77 Sudoeste 0.6 991.7 0.5 73
2019-11-26 16:00:00 15.5 38 Sudoeste 74 Sudoeste 0.2 991.1 -1.7 78
2019-11-26 15:00:00 15 32 Sudoeste 66 Sudoeste 4.2 991.5 -2.7 85
2019-11-26 14:00:00 17.5 30 Sudoeste 62 Sudoeste 0 991.2 -4.4 71
2019-11-26 13:00:00 17.6 27 Sudoeste 68 Sudoeste 0 992.8 -3.4 68
2019-11-26 12:00:00 16.6 27 Sudoeste 58 Sudoeste 0.2 994.2 -2.6 77
2019-11-26 11:00:00 15.4 25 Sudoeste 50 Sudoeste 0 995.6 -1.3 80
2019-11-26 10:00:00 16.4 25 Sudoeste 49 Sur 0 996.2 -0.9 72
2019-11-26 09:00:00 16.2 19 Sudoeste 52 Sur 0 996.8 -0.9 75
2019-11-26 08:00:00 16.1 20 Sudoeste 44 Sudoeste 0 996.9 -0.9 76
2019-11-26 07:00:00 16.1 19 Sudoeste 37 Sudoeste 0 997.1 -1.4 78
2019-11-26 06:00:00 16.2 19 Sudoeste 42 Sudoeste 0 997.7 -0.4 79
2019-11-26 05:00:00 16.5 19 Sudoeste 42 Sudoeste 0 997.8 -0.5 80
2019-11-26 04:00:00 17.1 20 Sudoeste 41 Sudoeste 0 998.5 -0.4 81
2019-11-26 03:00:00 17.1 23 Sudoeste 48 Sudoeste 0 998.1 -1.2 87
2019-11-26 02:00:00 17.2 22 Sudoeste 46 Sur 0 998.3 -1.4 84
2019-11-26 01:00:00 16.7 22 Sur 54 Sur 0 998.9 -1.6 83
2019-11-26 00:00:00 16.1 26 Sur 66 Sur 0 999.3 -1.9 82
2019-11-25 23:00:00 16 22 Sur 72 Sur 0 999.7 -2.6 79
2019-11-25 22:00:00 15.9 24 Sur 55 Sur 0 1000.5 -2.4 78
2019-11-25 21:00:00 15.7 29 Sur 57 Sur 0 1001.2 -2.4 77
2019-11-25 20:00:00 15.2 12 Sur 34 Sudoeste 0 1002.3 -1.5 78
2019-11-25 19:00:00 14.8 11 Sur 32 Sudeste 0 1002.9 -1 80
2019-11-25 18:00:00 14.9 9 Sur 30 Sudoeste 0 1003.6 -0.6 75
2019-11-25 17:00:00 15.3 10 Sur 32 Sudoeste 0 1003.8 -0.7 75
2019-11-25 16:00:00 15.2 20 Sudoeste 37 Sudoeste 0 1003.9 -1 76
2019-11-25 15:00:00 15.1 14 Sudoeste 33 Sudoeste 0 1004.2 -1 75
2019-11-25 14:00:00 15.4 18 Sudoeste 33 Sudoeste 0 1004.5 -0.4 72
2019-11-25 13:00:00 15.4 14 Sudoeste 26 Sur 0 1004.9 0.7 74
2019-11-25 12:00:00 14.7 14 Sudoeste 27 Sudoeste 0 1005.2 1.8 77
2019-11-25 11:00:00 14.4 18 Sudoeste 33 Oeste 0 1004.9 2 80
2019-11-25 10:00:00 13.4 14 Sudoeste 33 Sudoeste 0 1004.2 1.9 87
2019-11-25 09:00:00 13.5 19 Sudoeste 32 Sudoeste 0 1003.4 1.7 84
2019-11-25 08:00:00 13.8 15 Sudoeste 32 Sudoeste 0 1002.9 1.5 86
2019-11-25 07:00:00 13.7 16 Sudoeste 41 Sudoeste 0 1002.3 1.2 86
2019-11-25 06:00:00 14 19 Sudoeste 37 Sudoeste 0 1001.7 1.1 83
2019-11-25 05:00:00 13.3 18 Sudoeste 45 Sudoeste 0.4 1001.4 0.8 90
2019-11-25 04:00:00 14.3 19 Sudoeste 41 Oeste 0.2 1001.1 0.9 87
2019-11-25 03:00:00 14.3 17 Sudoeste 35 Sudoeste 0 1000.6 1 85
2019-11-25 02:00:00 14.9 20 Sudoeste 36 Sudoeste 0 1000.6 2 83
2019-11-25 01:00:00 15 18 Sudoeste 41 Sudoeste 0 1000.2 1.8 82
2019-11-25 00:00:00 15.1 22 Sudoeste 51 Oeste 1.2 999.6 0.9 88
2019-11-24 23:00:00 16 16 Sudoeste 39 Sudoeste 0 998.6 0.1 82
2019-11-24 22:00:00 16.1 19 Sudoeste 45 Sudoeste 0 998.4 0.3 85
2019-11-24 21:00:00 16.3 23 Sudoeste 41 Sudoeste 0 998.7 1 86
2019-11-24 20:00:00 16.3 19 Sudoeste 40 Sudoeste 0 998.5 1.3 86
2019-11-24 19:00:00 16.1 24 Sudoeste 51 Sudoeste 0 998.1 0.7 85
2019-11-24 18:00:00 15.4 24 Sudoeste 46 Sudoeste 1.4 997.7 -0.5 85
2019-11-24 17:00:00 15.1 18 Sur 53 Sur 0.2 997.2 -2.5 85
2019-11-24 16:00:00 15.9 21 Sur 58 Sur 0 997.4 -3.6 77
2019-11-24 15:00:00 14.9 21 Sur 58 Sur 0 998.2 -4.1 79
2019-11-24 14:00:00 14.6 25 Sur 50 Sur 0 999.7 -2.7 77
2019-11-24 13:00:00 13.6 22 Sur 53 Sur 0 1001 -2.3 81
2019-11-24 12:00:00 13.1 22 Sur 53 Sur 0 1002.3 -1.3 83
2019-11-24 11:00:00 13 16 Sur 43 Sur 0 1002.4 -1.6 80
2019-11-24 10:00:00 12 13 Sur 34 Sur 0 1003.3 -0.9 82
2019-11-24 09:00:00 11.6 15 Sur 31 Sur 0 1003.6 -0.9 83
2019-11-24 08:00:00 11.2 13 Sur 30 Sudeste 0 1004 -0.7 83
2019-11-24 07:00:00 11.2 8 Sur 19 Sur 0 1004.2 -1.3 81
2019-11-24 06:00:00 11 14 Sur 22 Sur 0 1004.5 -0.9 80
2019-11-24 05:00:00 11.4 9 Sur 22 Sur 0 1004.7 -0.6 77
2019-11-24 04:00:00 11.3 15 Sudoeste 24 Sudoeste 0 1005.5 0.1 76
2019-11-24 03:00:00 11 14 Sudoeste 24 Sudoeste 0 1005.4 0.3 79
2019-11-24 02:00:00 10.9 15 Sudoeste 23 Sur 0 1005.3 0.4 81
2019-11-24 01:00:00 11 13 Sudoeste 21 Sudoeste 0 1005.4 0.5 83
2019-11-24 00:00:00 11.5 13 Sudoeste 25 Sudoeste 0 1005.1 0.6 83
2019-11-23 23:00:00 11.9 15 Sudoeste 24 Sudoeste 0 1004.9 0.5 82
2019-11-23 22:00:00 12.4 13 Oeste 30 Oeste 0 1004.9 1.3 77
2019-11-23 21:00:00 12.4 14 Oeste 30 Oeste 0 1004.5 1.9 81
2019-11-23 20:00:00 12 13 Oeste 42 Noroeste 0 1004.4 2.3 82
2019-11-23 19:00:00 12.3 19 Oeste 35 Oeste 0 1003.6 2.3 80
2019-11-23 18:00:00 12.6 19 Oeste 36 Oeste 0 1002.6 1.9 79
2019-11-23 17:00:00 12.9 24 Oeste 40 Oeste 0 1002.1 1.7 79
2019-11-23 16:00:00 13.3 21 Oeste 38 Oeste 0 1001.3 1.4 76
2019-11-23 15:00:00 13.6 23 Oeste 53 Noroeste 0.2 1000.7 0.9 74
2019-11-23 14:00:00 14.7 27 Oeste 44 Oeste 0 1000.4 1.7 74
2019-11-23 13:00:00 14.2 26 Oeste 40 Oeste 0 999.9 2.4 71
2019-11-23 12:00:00 14 24 Noroeste 44 Oeste 0 999.8 3.4 71
2019-11-23 11:00:00 13 24 Noroeste 41 Oeste 0 998.7 3.5 74
2019-11-23 10:00:00 12.4 23 Noroeste 46 Oeste 0 997.5 3.4 77
2019-11-23 09:00:00 12.1 22 Noroeste 43 Oeste 0 996.4 3.5 78
2019-11-23 08:00:00 11.6 29 Noroeste 52 Noroeste 0 995.2 3.3 78
2019-11-23 07:00:00 11.3 26 Noroeste 51 Oeste 0.6 994.1 3.3 80
2019-11-23 06:00:00 10.8 31 Noroeste 66 Oeste 0.8 992.9 3.1 81
2019-11-23 05:00:00 11.6 29 Noroeste 57 Noroeste 0.2 991.9 3.4 83
2019-11-23 04:00:00 12.1 27 Noroeste 55 Oeste 0 990.8 3.6 76
2019-11-23 03:00:00 11.9 34 Noroeste 66 Noroeste 0 989.8 4.5 67
2019-11-23 02:00:00 11.9 37 Noroeste 66 Oeste 0 988.5 4.7 63
2019-11-23 01:00:00 11.9 34 Noroeste 71 Noroeste 0.2 987.2 5.3 76
2019-11-23 00:00:00 11.7 42 Noroeste 76 Oeste 0.8 985.3 6.1 82
2019-11-22 23:00:00 10.9 45 Oeste 82 Oeste 3.2 983.8 6.2 90
2019-11-22 22:00:00 11.1 53 Oeste 85 Noroeste 2 981.9 5.7 92
2019-11-22 21:00:00 11.5 47 Noroeste 89 Oeste 1.6 979.2 4 92
2019-11-22 20:00:00 11.9 42 Oeste 87 Oeste 0.2 977.6 3.2 94
2019-11-22 19:00:00 12.9 42 Oeste 89 Oeste 0 976.2 2 90
2019-11-22 18:00:00 13.1 32 Oeste 89 Oeste 0.8 975.2 0.3 92
2019-11-22 17:00:00 12.5 30 Sudoeste 61 Sudoeste 0.6 974.4 -1.5 88
2019-11-22 16:00:00 12.9 25 Sudoeste 53 Sudoeste 0 974.2 -2.8 83
2019-11-22 15:00:00 12.7 23 Sudoeste 57 Sudoeste 0.6 974.9 -2.1 84
2019-11-22 14:00:00 14 26 Sudoeste 51 Sudoeste 0 975.9 -0.2 78
2019-11-22 13:00:00 13.8 25 Sudoeste 58 Sudoeste 0 977 2.6 77
2019-11-22 12:00:00 14.1 30 Oeste 61 Sudoeste 0 977 2.5 84
2019-11-22 11:00:00 13.9 33 Sudoeste 77 Sudoeste 0.4 976.1 -0.1 90
2019-11-22 10:00:00 15.1 30 Sudoeste 61 Sudoeste 2.6 974.4 -3.9 91
2019-11-22 09:00:00 12.9 16 Sudeste 35 Sur 2.2 974.5 -5.2 93
2019-11-22 08:00:00 13.1 14 Sur 42 Sur 1.4 976.2 -4.7 90
2019-11-22 07:00:00 12.7 18 Sur 46 Sur 0.2 978.3 -4.7 88
2019-11-22 06:00:00 12.1 20 Sur 54 Sur 0.4 979.7 -5.8 86
2019-11-22 05:00:00 11.4 19 Sur 50 Sudeste 0.2 980.9 -7 84
2019-11-22 04:00:00 10.8 17 Sudeste 54 Sur 0 983 -7.1 85
2019-11-22 03:00:00 11.2 15 Sudeste 40 Sur 1 985.5 -6 84
2019-11-22 02:00:00 11.6 14 Sur 36 Sudeste 0 987.9 -5 80
2019-11-22 01:00:00 11.4 15 Sur 35 Sur 0 990.1 -3.6 83
2019-11-22 00:00:00 11.5 15 Sur 41 Sur 0 991.5 -2.6 83
2019-11-21 23:00:00 11.5 9 Sur 31 Sur 0 992.9 -2.2 81
2019-11-21 22:00:00 11.4 13 Sur 27 Sur 0 993.7 -1.9 81
2019-11-21 21:00:00 11.3 11 Sur 24 Sur 0 994.1 -1.4 82
2019-11-21 20:00:00 11.4 10 Sur 24 Sudoeste 0.2 995.1 -0.9 82
2019-11-21 19:00:00 11.5 8 Sur 22 Sur 0 995.6 0 80
2019-11-21 18:00:00 11.7 13 Sur 23 Sur 0 995.5 -0.4 77
2019-11-21 17:00:00 12.3 12 Sudoeste 39 Sudoeste 0.4 996 -0.2 79
2019-11-21 16:00:00 13.7 11 Sudoeste 35 Oeste 0 995.6 -1 66
2019-11-21 15:00:00 14.2 18 Oeste 36 Oeste 0 995.9 -1 67
2019-11-21 14:00:00 14.5 23 Sudoeste 38 Sudoeste 0 996.2 -0.6 64
2019-11-21 13:00:00 14 15 Sudoeste 34 Sudoeste 0 996.6 0 68
2019-11-21 12:00:00 13.8 21 Sudoeste 36 Sudoeste 0 996.9 0.3 71
2019-11-21 11:00:00 12 13 Sudoeste 23 Sudoeste 0 996.8 0.4 77
2019-11-21 10:00:00 9.8 11 Sur 31 Sudoeste 0.2 996.6 0.5 86
2019-11-21 09:00:00 9.5 18 Sudoeste 38 Sudoeste 1.2 996.6 1 86
2019-11-21 08:00:00 -- -- -- -- -- -- -- -- --
2019-11-21 07:00:00 -- -- -- -- -- -- -- -- --
2019-11-21 06:00:00 -- -- -- -- -- -- -- -- --
2019-11-21 05:00:00 -- -- -- -- -- -- -- -- --
2019-11-21 04:00:00 -- -- -- -- -- -- -- -- --
2019-11-21 03:00:00 -- -- -- -- -- -- -- -- --
2019-11-21 02:00:00 -- -- -- -- -- -- -- -- --
2019-11-21 01:00:00 -- -- -- -- -- -- -- -- --
2019-11-21 00:00:00 -- -- -- -- -- -- -- -- --
2019-11-20 23:00:00 -- -- -- -- -- -- -- -- --
2019-11-20 22:00:00 -- -- -- -- -- -- -- -- --
2019-11-20 21:00:00 -- -- -- -- -- -- -- -- --
2019-11-20 20:00:00 -- -- -- -- -- -- -- -- --
2019-11-20 19:00:00 10.4 6 Sudeste 26 Sudoeste 0.4 995.6 0.2 83
2019-11-20 18:00:00 11.1 6 Sudoeste 33 Sur 0 995.7 0.1 76
2019-11-20 17:00:00 11.7 14 Sur 29 Sur 0 995.3 -0.7 76
2019-11-20 16:00:00 12 19 Sur 34 Sur 0 995.4 -1.1 75
2019-11-20 15:00:00 11.7 12 Sur 42 Sur 0 995.6 -2 76
2019-11-20 14:00:00 11.8 17 Sur 41 Sur 0 996 -2.1 75
2019-11-20 13:00:00 11.4 18 Sur 44 Sur 0 996.5 -2 77
2019-11-20 12:00:00 10.2 6 Sudeste 24 Sur 0.4 997.6 -0.5 86
2019-11-20 11:00:00 10.5 10 Sur 25 Sudoeste 0 998.1 0 85
2019-11-20 10:00:00 10.3 11 Sudoeste 29 Sur 0 998.5 0.3 79
2019-11-20 09:00:00 9.7 5 Sur 25 Sur 0 998.1 -0.9 82
2019-11-20 08:00:00 9.4 11 Sudeste 29 Sudeste 0 998.1 -1.2 84
2019-11-20 07:00:00 9.4 15 Sur 26 Sur 0 998.2 -2 85
2019-11-20 06:00:00 9.4 12 Sudeste 18 Sur 0 999 -1.7 81
2019-11-20 05:00:00 9.5 10 Sur 17 Sur 0 999.3 -2.2 83
2019-11-20 04:00:00 9.1 10 Sur 18 Sur 0 1000.2 -2.1 87
2019-11-20 03:00:00 9.3 8 Sur 13 Sudeste 0 1000.7 -2 86
2019-11-20 02:00:00 9.7 8 Sur 15 Sur 0 1001.5 -1.7 86
2019-11-20 01:00:00 9.6 11 Sudoeste 19 Sudoeste 0 1002.3 -1.2 87
2019-11-20 00:00:00 9.5 10 Sur 15 Sur 0 1002.7 -1.1 81
2019-11-19 23:00:00 9.9 8 Sur 14 Sur 0 1003.2 -1 83
2019-11-19 22:00:00 9.8 6 Sudeste 12 Sudoeste 0 1003.5 -0.8 85
2019-11-19 21:00:00 10.6 3 Nordeste 13 Sudoeste 0 1003.8 -0.4 84
2019-11-19 20:00:00 11.2 5 Sudoeste 12 Sur 0 1004.2 0 85
2019-11-19 19:00:00 11.2 4 Sur 13 Oeste 0 1004.3 -0.4 90
2019-11-19 18:00:00 11.5 6 Oeste 14 Oeste 0 1004.2 -0.9 90
2019-11-19 17:00:00 11.7 3 Oeste 12 Sudoeste 0 1004.2 -1 85
2019-11-19 16:00:00 11.6 0 Calma 19 Sur 0 1004.7 -0.9 85
2019-11-19 15:00:00 11.8 6 Sudoeste 32 Sudoeste 0 1005.1 -0.9 84
2019-11-19 14:00:00 11.5 17 Sur 37 Sur 0.4 1005.2 -1.5 82
2019-11-19 13:00:00 10.8 13 Sur 36 Sudeste 0.6 1005.6 -1.1 86
2019-11-19 12:00:00 10.7 18 Sudeste 33 Sur 0.6 1006 -0.8 83
2019-11-19 11:00:00 10.4 10 Sudeste 27 Sur 0.4 1006.7 -0.4 84
2019-11-19 10:00:00 10.4 12 Sudeste 26 Sudeste 0.2 1006.7 -0.2 81
2019-11-19 09:00:00 9.9 13 Sur 28 Sur 0.2 1006.8 -0.7 83
2019-11-19 08:00:00 9.5 4 Sur 21 Sur 0.2 1007.1 -1 85
2019-11-19 07:00:00 9 10 Sudeste 22 Sudeste 0 1006.9 -2 84
2019-11-19 06:00:00 8.4 13 Sudeste 21 Sudeste 0 1007.5 -1.9 86
2019-11-19 05:00:00 8.2 11 Sudeste 23 Sudeste 0 1008.1 -1.9 88
2019-11-19 04:00:00 8.6 8 Sudeste 14 Sur 0 1008.9 -1.6 87
2019-11-19 03:00:00 9.1 6 Sur 18 Sur 0 1009.4 -1.3 87
2019-11-19 02:00:00 9.2 11 Sur 20 Sur 0 1010 -1 87
2019-11-19 01:00:00 8.8 7 Sur 14 Sur 0 1010.5 -1 88
2019-11-19 00:00:00 8.7 10 Sur 15 Sur 0 1010.7 -1 89
2019-11-18 23:00:00 9.1 8 Sudeste 12 Sudeste 0 1011 -0.5 87
2019-11-18 22:00:00 9.8 7 Sur 11 Sur 0 1011.5 0.1 84
2019-11-18 21:00:00 10.4 6 Sur 8 Sudoeste 0 1011.7 0 81
2019-11-18 20:00:00 10.6 6 Sudoeste 8 Sur 0 1011.5 0 81
2019-11-18 19:00:00 10.9 5 Sudeste 8 Oeste 0 1011.4 0 81
2019-11-18 18:00:00 11.3 5 Oeste 7 Noroeste 0 1011.7 0 79
2019-11-18 17:00:00 11.9 6 Noroeste 9 Norte 0 1011.5 -0.4 75
2019-11-18 16:00:00 12.2 5 Norte 7 Norte 0 1011.4 -1 75
2019-11-18 15:00:00 13 6 Nordeste 9 Nordeste 0 1011.7 -0.9 72
2019-11-18 14:00:00 13.7 3 Nordeste 9 Este 0 1011.9 -0.9 71
2019-11-18 13:00:00 12.8 4 Este 9 Nordeste 0 1012.4 -0.1 76
2019-11-18 12:00:00 11.6 5 Sur 12 Sur 0 1012.6 0.7 83
2019-11-18 11:00:00 10.7 8 Sur 11 Sur 0 1012.8 1.5 90
2019-11-18 10:00:00 10.5 3 Noroeste 10 Norte 1.8 1012.5 1.6 91
2019-11-18 09:00:00 10 5 Oeste 9 Noroeste 0 1011.9 1.4 88
2019-11-18 08:00:00 9.7 0 Calma 10 Norte 0.2 1011.3 1 88
2019-11-18 07:00:00 9.8 2 Sur 10 Sudeste 0 1010.9 0.9 90
2019-11-18 06:00:00 10.1 4 Sur 24 Nordeste 0 1010.5 1 88
2019-11-18 05:00:00 10.4 15 Nordeste 32 Noroeste 0.2 1010.3 0.9 88
2019-11-18 04:00:00 10.3 10 Noroeste 24 Noroeste 0 1010 0.7 86
2019-11-18 03:00:00 10 5 Sudeste 47 Nordeste 0.8 1009.5 0.6 85
2019-11-18 02:00:00 11.9 25 Norte 45 Noroeste 0 1009.4 0.6 77
2019-11-18 01:00:00 11.3 12 Nordeste 42 Norte 0.6 1009.3 0.8 80
2019-11-18 00:00:00 11.2 10 Nordeste 19 Nordeste 0 1008.9 1.2 78
2019-11-17 23:00:00 11 8 Nordeste 28 Nordeste 0 1008.8 1.7 79
2019-11-17 22:00:00 11.4 18 Nordeste 41 Norte 0 1008.5 2.2 80
2019-11-17 21:00:00 12 15 Nordeste 33 Norte 0 1007.7 1.9 80
2019-11-17 20:00:00 12.2 21 Norte 44 Norte 0 1007.1 1.3 78
2019-11-17 19:00:00 12 21 Norte 44 Oeste 0.2 1006.3 0.6 85
2019-11-17 18:00:00 11.7 26 Noroeste 54 Noroeste 0.2 1005.8 -0.3 84
2019-11-17 17:00:00 11.9 27 Noroeste 41 Noroeste 0.6 1005.8 -0.5 80
2019-11-17 16:00:00 12.2 30 Oeste 44 Oeste 0 1005.7 -0.8 77
2019-11-17 15:00:00 11.7 22 Noroeste 54 Noroeste 0.2 1006.1 -0.9 81
2019-11-17 14:00:00 13.4 21 Noroeste 40 Oeste 0 1006.3 -0.4 66
2019-11-17 13:00:00 12.7 17 Noroeste 48 Noroeste 0 1006.5 0.4 72
2019-11-17 12:00:00 12.8 31 Noroeste 51 Noroeste 0 1007 1.2 77
2019-11-17 11:00:00 11.5 12 Noroeste 42 Noroeste 0.2 1006.7 1.3 87
2019-11-17 10:00:00 12.2 19 Noroeste 32 Oeste 0 1006.1 1 79
2019-11-17 09:00:00 11.7 15 Oeste 37 Oeste 0 1005.8 0.5 81
2019-11-17 08:00:00 11.2 12 Oeste 39 Oeste 0.6 1005.4 0.3 94
2019-11-17 07:00:00 11.4 24 Oeste 37 Oeste 1.8 1005.1 0.8 95
2019-11-17 06:00:00 11.8 24 Oeste 38 Oeste 1 1005.3 0.3 90
2019-11-17 05:00:00 12.1 18 Oeste 37 Sudoeste 2.6 1005.1 -0.5 93
2019-11-17 04:00:00 12.5 16 Sudoeste 31 Sudoeste 0 1004.3 -1.4 84
2019-11-17 03:00:00 11.6 3 Este 13 Sur 0 1005 -1.3 85
2019-11-17 02:00:00 11.3 5 Este 23 Sur 0 1005.6 -1.5 85
2019-11-17 01:00:00 11.2 10 Sur 22 Sur 0 1005.7 -2 84
2019-11-17 00:00:00 11 6 Sur 17 Sudeste 0 1006.3 -1.3 84
2019-11-16 23:00:00 10.8 8 Sur 19 Sur 0 1007.1 -0.9 85
2019-11-16 22:00:00 10.4 4 Sudeste 8 Sur 0 1007.7 -0.5 84
2019-11-16 21:00:00 10.4 5 Sudeste 11 Sur 0 1007.6 -0.9 81
2019-11-16 20:00:00 10.4 2 Sudeste 13 Sur 0 1008 -0.8 82
2019-11-16 19:00:00 10.2 8 Sur 14 Sudoeste 0 1008.2 -0.5 82
2019-11-16 18:00:00 10.1 9 Sur 28 Oeste 0 1008.5 -0.3 84
2019-11-16 17:00:00 10.9 15 Sudoeste 29 Oeste 0 1008.8 -0.1 75
2019-11-16 16:00:00 11.4 10 Sudoeste 26 Sudoeste 0 1008.7 -1 71
2019-11-16 15:00:00 11.5 12 Sudoeste 26 Sudoeste 0 1008.8 -1 71
2019-11-16 14:00:00 11.1 12 Sudoeste 23 Oeste 0.2 1008.9 -0.8 75
2019-11-16 13:00:00 11.7 11 Oeste 28 Oeste 0.2 1009.7 0 69
2019-11-16 12:00:00 11.6 13 Oeste 29 Oeste 0 1009.8 0.6 62
2019-11-16 11:00:00 11.3 13 Oeste 29 Oeste 0 1009.7 0.9 65
2019-11-16 10:00:00 10.5 17 Oeste 30 Noroeste 0 1009.7 1.3 62
2019-11-16 09:00:00 10.3 16 Oeste 27 Oeste 0 1009.2 1.2 64
2019-11-16 08:00:00 10.4 15 Noroeste 28 Noroeste 0 1008.8 1 68
2019-11-16 07:00:00 10.4 17 Noroeste 26 Noroeste 0 1008.4 0.4 72
2019-11-16 06:00:00 10.4 13 Noroeste 28 Noroeste 0 1008 -0.3 71
2019-11-16 05:00:00 10.3 12 Noroeste 29 Norte 0 1007.8 0 65
2019-11-16 04:00:00 8.8 3 Sudoeste 24 Nordeste 0.6 1008 0.5 86
2019-11-16 03:00:00 9 11 Nordeste 37 Norte 2 1008.3 1.4 85
2019-11-16 02:00:00 10 27 Norte 49 Norte 0 1007.8 1.2 74
2019-11-16 01:00:00 10.2 24 Norte 41 Noroeste 0 1007.5 1.2 78
2019-11-16 00:00:00 10.3 19 Noroeste 49 Norte 0 1006.9 1.3 75
2019-11-15 23:00:00 9.5 22 Norte 42 Norte 1 1006.6 1.3 78
2019-11-15 22:00:00 8.8 19 Nordeste 65 Norte 0.8 1006.3 1.8 84
2019-11-15 21:00:00 9.7 36 Norte 65 Norte 0.2 1005.6 1.3 77
2019-11-15 20:00:00 8.4 5 Norte 56 Nordeste 1 1005.3 1.4 86
2019-11-15 19:00:00 8.9 18 Norte 60 Norte 1.8 1004.5 1 78
2019-11-15 18:00:00 9.7 32 Norte 55 Norte 0.6 1004.3 1 77
2019-11-15 17:00:00 11.1 26 Norte 53 Norte 0 1003.9 -0.5 63
2019-11-15 16:00:00 10.9 30 Norte 64 Norte 0 1003.5 -0.3 61
2019-11-15 15:00:00 9.8 32 Norte 58 Norte 4 1003.3 -1.1 71
2019-11-15 14:00:00 8.3 33 Norte 66 Norte 1.6 1004.4 0.2 85
2019-11-15 13:00:00 10.7 30 Noroeste 53 Noroeste 0.4 1003.8 -0.4 68
2019-11-15 12:00:00 10.8 24 Noroeste 55 Noroeste 0 1004.4 0.7 62
2019-11-15 11:00:00 9.4 23 Norte 57 Norte 0.4 1004.2 0.8 66
2019-11-15 10:00:00 10.1 24 Noroeste 62 Norte 0 1004.2 1 60
2019-11-15 09:00:00 10.2 27 Noroeste 58 Norte 0.2 1003.7 1 62
2019-11-15 08:00:00 10.2 29 Noroeste 61 Norte 0 1003.4 1 58
2019-11-15 07:00:00 9.4 30 Noroeste 71 Noroeste 0 1003.2 0.9 66
2019-11-15 06:00:00 10.4 29 Noroeste 60 Noroeste 0.2 1002.7 0.1 55
2019-11-15 05:00:00 10.8 23 Noroeste 55 Norte 0 1002.4 0.1 54
2019-11-15 04:00:00 10.8 27 Noroeste 59 Noroeste 0 1002.3 0 62
2019-11-15 03:00:00 10.1 34 Noroeste 58 Norte 0 1002.6 0.7 66
2019-11-15 02:00:00 10.1 31 Norte 69 Norte 0.2 1002.3 0.6 68
2019-11-15 01:00:00 10.7 39 Norte 63 Noroeste 0 1002.3 0.9 62
2019-11-15 00:00:00 10.7 36 Norte 67 Norte 0 1001.9 0.8 61
2019-11-14 23:00:00 11.1 31 Norte 55 Norte 0 1001.7 0.8 60
2019-11-14 22:00:00 11 33 Noroeste 69 Norte 1.8 1001.4 0.9 63
2019-11-14 21:00:00 11.3 27 Noroeste 66 Noroeste 0.4 1001.1 1.6 61
2019-11-14 20:00:00 11.6 28 Noroeste 66 Noroeste 0 1000.9 2.7 59
2019-11-14 19:00:00 11.7 28 Noroeste 71 Noroeste 0 1000.5 2.7 62
2019-11-14 18:00:00 11.9 33 Noroeste 68 Noroeste 0.2 999.5 2.8 65
2019-11-14 17:00:00 12.1 36 Noroeste 73 Oeste 0 998.2 2.8 71
2019-11-14 16:00:00 9 31 Norte 87 Norte 1.4 997.8 3.5 92
2019-11-14 15:00:00 11.9 37 Noroeste 75 Noroeste 0 996.7 3 73
2019-11-14 14:00:00 11.3 35 Noroeste 82 Noroeste 0 995.4 2.4 79
2019-11-14 13:00:00 12.4 48 Noroeste 82 Noroeste 0.6 994.3 0.5 70
2019-11-14 12:00:00 12.2 41 Noroeste 79 Noroeste 0.4 993.7 -0.3 69
2019-11-14 11:00:00 10.3 46 Noroeste 79 Noroeste 0.6 993 -2.8 81
2019-11-14 10:00:00 11.4 39 Noroeste 81 Oeste 0.2 993.8 -3.3 66
2019-11-14 09:00:00 9.4 36 Oeste 76 Oeste 2.2 994 -4.4 85
2019-11-14 08:00:00 8.3 24 Sudoeste 51 Oeste 0 995.8 -3 80
2019-11-14 07:00:00 9.7 27 Oeste 64 Oeste 0.2 997.1 -3.7 65
2019-11-14 06:00:00 9.7 38 Oeste 61 Oeste 0.8 998.4 -2.3 71
2019-11-14 05:00:00 8.6 21 Oeste 59 Oeste 0.4 998.8 -2.9 78
2019-11-14 04:00:00 9 43 Noroeste 70 Noroeste 0.2 1000.8 -1.5 71
2019-11-14 03:00:00 10.2 33 Oeste 60 Oeste 0 1000.7 -1.7 62
2019-11-14 02:00:00 10.4 35 Noroeste 65 Noroeste 0 1001.7 -0.8 64
2019-11-14 01:00:00 9.8 45 Noroeste 80 Noroeste 0.4 1002.3 -0.3 74
2019-11-14 00:00:00 9.5 28 Noroeste 63 Oeste 0.4 1002.4 -0.6 88
2019-11-13 23:00:00 11.5 31 Noroeste 75 Noroeste 0.2 1002.5 -1 80
2019-11-13 22:00:00 11.6 35 Oeste 57 Oeste 1.2 1002.6 -1.5 88
2019-11-13 21:00:00 11.6 33 Oeste 63 Oeste 3.2 1003 -2.4 92
2019-11-13 20:00:00 12.5 26 Sudoeste 48 Sudoeste 0.6 1003.5 -2.6 86
2019-11-13 19:00:00 12.4 23 Sudoeste 45 Oeste 0 1004.1 -2.3 85
2019-11-13 18:00:00 12.6 22 Oeste 47 Sudoeste 0.2 1005.4 -1.6 85
2019-11-13 17:00:00 13.3 18 Sudoeste 41 Oeste 0 1006.1 -1.7 75
2019-11-13 16:00:00 13.3 20 Sudoeste 40 Oeste 0 1006.4 -2.2 81
2019-11-13 15:00:00 14.2 17 Oeste 32 Sudoeste 0 1007 -2.4 72
2019-11-13 14:00:00 14.1 15 Oeste 26 Oeste 0 1007.8 -0.9 73
2019-11-13 13:00:00 12.8 8 Oeste 27 Noroeste 0 1008.6 0.5 81
2019-11-13 12:00:00 13.2 12 Noroeste 24 Noroeste 0 1009.4 1.7 74
2019-11-13 11:00:00 12.5 4 Noroeste 18 Noroeste 0.2 1008.7 1.8 86
2019-11-13 10:00:00 12.5 2 Oeste 12 Nordeste 0 1008.1 2 86
2019-11-13 09:00:00 12.3 8 Nordeste 18 Nordeste 0 1007.7 3 88
2019-11-13 08:00:00 12.2 12 Nordeste 27 Nordeste 0 1006.9 3.2 90
2019-11-13 07:00:00 12.3 14 Nordeste 28 Nordeste 0 1006.1 3.1 90
2019-11-13 06:00:00 12.2 14 Nordeste 37 Nordeste 0 1004.7 2.6 95
2019-11-13 05:00:00 12.5 21 Nordeste 37 Nordeste 0 1003.7 2.5 97
2019-11-13 04:00:00 13.1 21 Nordeste 37 Nordeste 0 1003 3 91
2019-11-13 03:00:00 13.2 18 Nordeste 37 Nordeste 0 1002.1 2.5 97
2019-11-13 02:00:00 13.3 15 Norte 31 Norte 0.2 1001.2 2.2 97
2019-11-13 01:00:00 13.5 14 Norte 26 Norte 0 1000 1.4 99
2019-11-13 00:00:00 13.7 15 Norte 29 Norte 1.4 999.6 0.5 99
2019-11-12 23:00:00 15.2 21 Oeste 55 Oeste 5 999 -0.6 98
2019-11-12 22:00:00 15.4 23 Oeste 48 Oeste 2.6 998.6 -1.4 99
2019-11-12 21:00:00 15.4 23 Oeste 60 Oeste 0.8 999.1 -1 99
2019-11-12 20:00:00 15.4 26 Oeste 58 Oeste 0 999.6 -1 99
2019-11-12 19:00:00 15.4 28 Oeste 55 Sudoeste 1.4 1000 -1.5 98
2019-11-12 18:00:00 15.3 33 Oeste 63 Sudoeste 3.6 1000.1 -2.1 98
2019-11-12 17:00:00 15.1 30 Oeste 58 Sudoeste 3.8 1000.6 -3.2 98
2019-11-12 16:00:00 15 28 Sudoeste 61 Oeste 4.8 1001.5 -4.1 97
2019-11-12 15:00:00 14.2 27 Sudoeste 44 Sudoeste 1.8 1002.2 -5.1 94
2019-11-12 14:00:00 13.7 17 Sudoeste 35 Sudoeste 0.6 1003.8 -4.4 90
2019-11-12 13:00:00 13.8 13 Sur 32 Sudoeste 0 1005.6 -4 84
2019-11-12 12:00:00 12.2 10 Sur 23 Sur 0.2 1007.3 -2.9 88
2019-11-12 11:00:00 11.4 12 Sur 21 Sur 0.6 1008.2 -2.4 91
2019-11-12 10:00:00 11.4 7 Sur 16 Sur 0.4 1009.6 -1.6 90
2019-11-12 09:00:00 11.3 10 Sudoeste 24 Oeste 0 1010.2 -1.5 89
2019-11-12 08:00:00 10.7 9 Sudoeste 22 Sudoeste 0 1010.6 -1.1 91
2019-11-12 07:00:00 10.6 15 Sudoeste 25 Sudoeste 1.2 1011.2 -1 93
2019-11-12 06:00:00 11.3 15 Sudoeste 31 Sudoeste 0 1011.7 -1.1 86
2019-11-12 05:00:00 11.4 15 Sudoeste 24 Sudoeste 0.4 1011.7 -1.5 83
2019-11-12 04:00:00 11.7 12 Sudoeste 26 Sudoeste 0 1012.2 -2 81
2019-11-12 03:00:00 11.8 15 Sudoeste 25 Sudoeste 0 1012.8 -1.9 77
2019-11-12 02:00:00 12.2 10 Sudoeste 21 Noroeste 0 1013.2 -1.7 71
2019-11-12 01:00:00 12.3 12 Oeste 21 Oeste 0 1014.2 -0.9 67
2019-11-12 00:00:00 11.9 11 Noroeste 17 Oeste 0 1014.7 0.1 70
2019-11-11 23:00:00 11.9 6 Oeste 18 Noroeste 0 1014.9 0.1 69
2019-11-11 22:00:00 12.5 11 Noroeste 18 Norte 0 1015.1 0.4 67
2019-11-11 21:00:00 12.7 10 Noroeste 26 Noroeste 0 1014.6 0 71
2019-11-11 20:00:00 12.8 8 Noroeste 15 Noroeste 0 1014.8 0.4 72
2019-11-11 19:00:00 13 8 Norte 21 Norte 0 1014.7 0.4 68
2019-11-11 18:00:00 13.2 10 Norte 17 Norte 0 1014.6 0.1 66
2019-11-11 17:00:00 13.5 8 Norte 22 Norte 0 1014.4 -0.4 64
2019-11-11 16:00:00 13.8 14 Norte 28 Norte 0 1014.3 -0.6 61
2019-11-11 15:00:00 14.1 18 Norte 35 Norte 0 1014.5 -0.5 63
2019-11-11 14:00:00 14.2 17 Norte 26 Noroeste 0 1014.8 0.4 66
2019-11-11 13:00:00 13.6 13 Nordeste 31 Norte 0 1014.9 0.9 73
2019-11-11 12:00:00 14.1 17 Norte 38 Norte 0 1015 1.8 64
2019-11-11 11:00:00 13.6 26 Norte 39 Norte 0 1014.4 2.2 72
2019-11-11 10:00:00 13.7 22 Norte 40 Norte 0 1014 2.9 72
2019-11-11 09:00:00 13.7 22 Norte 45 Norte 0 1013.2 2.7 80
2019-11-11 08:00:00 13.5 22 Noroeste 45 Norte 0.2 1012.2 1.9 86
2019-11-11 07:00:00 13.9 17 Noroeste 35 Norte 0.4 1011.1 0.6 99
2019-11-11 06:00:00 14.5 21 Noroeste 38 Noroeste 0.2 1010.5 -0.4 99
2019-11-11 05:00:00 14.9 20 Noroeste 38 Sudoeste 0.6 1010.3 -0.4 99
2019-11-11 04:00:00 14.3 17 Oeste 29 Sudoeste 1.2 1010.5 -0.8 99
2019-11-11 03:00:00 13.8 16 Sudoeste 30 Oeste 0.8 1010.9 -0.4 98
2019-11-11 02:00:00 12.8 12 Sudoeste 22 Oeste 0 1010.7 -1.4 99
2019-11-11 01:00:00 11.3 9 Sur 17 Sur 0 1011.3 -1.7 93
2019-11-11 00:00:00 10.3 11 Sudeste 28 Sudeste 0.2 1011.3 -1.4 94
2019-11-10 23:00:00 9.9 17 Sudeste 26 Sudeste 0.2 1012.1 -0.6 94
2019-11-10 22:00:00 9.9 13 Sudeste 20 Sudeste 0.2 1013 0 96
2019-11-10 21:00:00 10 13 Sur 19 Sur 0 1012.7 -0.9 94
2019-11-10 20:00:00 9.9 11 Sur 21 Sudeste 0.2 1012.7 -1 95
2019-11-10 19:00:00 9.8 13 Sudeste 19 Sur 1.2 1013 -1.2 95
2019-11-10 18:00:00 9.7 10 Sudeste 18 Sudeste 1.6 1013.6 -0.9 96
2019-11-10 17:00:00 9.9 9 Sudeste 14 Sudeste 1 1013.7 -1.4 95
2019-11-10 16:00:00 10.3 5 Este 14 Noroeste 1.4 1014.2 -1.3 92
2019-11-10 15:00:00 10.6 10 Noroeste 18 Noroeste 0.8 1014.5 -1.6 91
2019-11-10 14:00:00 11 12 Noroeste 27 Oeste 0.6 1015.1 -0.1 82
2019-11-10 13:00:00 11 11 Noroeste 39 Norte 1 1015.5 0.3 82
2019-11-10 12:00:00 11.5 19 Noroeste 47 Noroeste 1.2 1016.1 1.3 74
2019-11-10 11:00:00 12.2 26 Noroeste 54 Noroeste 0.6 1015.2 0.7 66
2019-11-10 10:00:00 11.4 23 Noroeste 54 Noroeste 0.8 1015.2 0.8 83
2019-11-10 09:00:00 12.9 21 Noroeste 54 Oeste 0 1014.8 0 70
2019-11-10 08:00:00 12.7 25 Noroeste 49 Noroeste 0 1014.5 -0.2 74
2019-11-10 07:00:00 12.6 22 Noroeste 48 Noroeste 0 1014.4 -0.8 69
2019-11-10 06:00:00 12.1 27 Noroeste 59 Noroeste 0.8 1014.8 -0.6 69
2019-11-10 05:00:00 12.1 20 Noroeste 47 Noroeste 0 1014.7 -0.7 67
2019-11-10 04:00:00 11.3 24 Noroeste 54 Noroeste 0.2 1015.2 -0.4 74
2019-11-10 03:00:00 11.3 22 Noroeste 43 Oeste 0.4 1015.4 0 74
2019-11-10 02:00:00 12.9 22 Noroeste 41 Oeste 0 1015.4 0 61
2019-11-10 01:00:00 12.8 24 Noroeste 46 Oeste 0 1015.6 0.3 64
2019-11-10 00:00:00 12.2 17 Noroeste 32 Noroeste 0 1015.4 0 70
2019-11-09 23:00:00 12.7 20 Noroeste 42 Noroeste 0 1015.4 0.4 57
2019-11-09 22:00:00 12.7 22 Noroeste 42 Noroeste 0 1015.3 1.1 63
2019-11-09 21:00:00 12.3 16 Noroeste 42 Noroeste 0 1015.4 1.9 74
2019-11-09 20:00:00 11.9 27 Noroeste 56 Noroeste 0.6 1015 1.7 71
2019-11-09 19:00:00 12.9 28 Noroeste 54 Noroeste 0 1014.2 1.3 80
2019-11-09 18:00:00 14.2 27 Noroeste 43 Oeste 0 1013.5 0.7 69
2019-11-09 17:00:00 14.4 19 Oeste 42 Noroeste 0 1013.3 0.3 68
2019-11-09 16:00:00 14.3 26 Noroeste 48 Noroeste 0 1012.9 -0.1 77
2019-11-09 15:00:00 15 15 Oeste 36 Oeste 0 1012.8 -0.2 67
2019-11-09 14:00:00 15.2 21 Noroeste 37 Noroeste 0 1013 0.9 66
2019-11-09 13:00:00 14.4 16 Noroeste 34 Noroeste 0 1013 1.5 73
2019-11-09 12:00:00 14.6 23 Noroeste 41 Oeste 0 1013 2.4 69
2019-11-09 11:00:00 14.8 23 Noroeste 43 Noroeste 0 1012.1 2.3 78
2019-11-09 10:00:00 14.6 19 Noroeste 35 Oeste 0 1011.5 2 93
2019-11-09 09:00:00 13.7 17 Sudoeste 41 Sudoeste 0.4 1010.6 0.1 93
2019-11-09 08:00:00 13.7 28 Sudoeste 51 Sur 0 1009.8 -1.4 87
2019-11-09 07:00:00 12.7 13 Sur 28 Sur 0 1009.5 -2.7 85
2019-11-09 06:00:00 11.2 7 Sudeste 21 Sur 0.2 1010.5 -2.3 88
2019-11-09 05:00:00 11.3 6 Sur 16 Sur 0.6 1011.2 -2.5 86
2019-11-09 04:00:00 11.8 7 Sur 23 Sur 0 1012.2 -2.2 75
2019-11-09 03:00:00 12.1 12 Sur 21 Sur 0 1012.8 -2.1 70
2019-11-09 02:00:00 12.1 8 Sur 23 Sudoeste 0 1013.7 -1.7 70
2019-11-09 01:00:00 11.9 14 Sudoeste 26 Sur 0 1014.4 -0.4 70
2019-11-09 00:00:00 11.7 14 Sudoeste 23 Sudoeste 0 1014.9 -0.1 71
2019-11-08 23:00:00 11.8 12 Sudoeste 21 Sudoeste 0 1015.4 0.5 73
2019-11-08 22:00:00 11.9 14 Sudoeste 23 Sudoeste 0 1014.8 0.1 73
2019-11-08 21:00:00 12.8 13 Oeste 35 Noroeste 0 1015 0.7 66
2019-11-08 20:00:00 12.7 12 Oeste 29 Noroeste 0 1014.9 0.6 66
2019-11-08 19:00:00 12.8 16 Oeste 31 Noroeste 0 1014.7 1.1 63
2019-11-08 18:00:00 12.7 15 Noroeste 34 Oeste 0 1014.3 0.7 65
2019-11-08 17:00:00 13.2 20 Noroeste 35 Noroeste 0 1014.3 0.9 62
2019-11-08 16:00:00 13.4 17 Noroeste 37 Noroeste 0 1013.6 0.1 57
2019-11-08 15:00:00 14 21 Oeste 37 Oeste 0 1013.6 0.2 64
2019-11-08 14:00:00 14.4 22 Noroeste 46 Noroeste 0 1013.4 0.7 57
2019-11-08 13:00:00 13.7 22 Noroeste 42 Noroeste 0 1013.5 1.5 63
2019-11-08 12:00:00 14 18 Noroeste 44 Noroeste 0 1013.4 2.3 63
2019-11-08 11:00:00 13.6 24 Noroeste 49 Oeste 0 1012.7 2.5 67
2019-11-08 10:00:00 12.6 21 Noroeste 48 Noroeste 0 1012 2.4 68
2019-11-08 09:00:00 12.1 21 Noroeste 45 Oeste 0 1011.1 1.9 71
2019-11-08 08:00:00 12 24 Noroeste 48 Noroeste 0 1010.2 1.8 70
2019-11-08 07:00:00 11.2 22 Noroeste 55 Norte 2.6 1009.6 2 78
2019-11-08 06:00:00 11.4 24 Noroeste 49 Norte 0.2 1009.2 1.8 75
2019-11-08 05:00:00 10.4 19 Noroeste 47 Oeste 0.2 1008.4 1.4 79
2019-11-08 04:00:00 11 32 Noroeste 62 Noroeste 0 1007.6 0.8 68
2019-11-08 03:00:00 10.2 21 Noroeste 48 Oeste 0.6 1007.4 0.7 84
2019-11-08 02:00:00 10.4 27 Noroeste 57 Noroeste 2 1007 0.9 73
2019-11-08 01:00:00 10.9 31 Noroeste 58 Oeste 2 1006.8 1 72
2019-11-08 00:00:00 10.8 24 Noroeste 58 Oeste 2.4 1006.7 1.1 73